sensor_id;sensor_type;location;lat;lon;timestamp;P1;durP1;ratioP1;P2;durP2;ratioP2
19084;SDS011;9675;51.538;6.728;2024-02-28T00:00:13;24.93;;;7.33;;
19084;SDS011;9675;51.538;6.728;2024-02-28T00:02:40;18.37;;;7.70;;
19084;SDS011;9675;51.538;6.728;2024-02-28T00:05:07;19.70;;;8.50;;
19084;SDS011;9675;51.538;6.728;2024-02-28T00:07:35;21.53;;;9.67;;
19084;SDS011;9675;51.538;6.728;2024-02-28T00:10:02;23.80;;;9.30;;
19084;SDS011;9675;51.538;6.728;2024-02-28T00:12:29;20.70;;;7.83;;
19084;SDS011;9675;51.538;6.728;2024-02-28T00:14:56;17.67;;;7.03;;
19084;SDS011;9675;51.538;6.728;2024-02-28T00:17:25;20.00;;;8.20;;
19084;SDS011;9675;51.538;6.728;2024-02-28T00:19:52;20.90;;;7.90;;
19084;SDS011;9675;51.538;6.728;2024-02-28T00:22:19;23.07;;;8.13;;
19084;SDS011;9675;51.538;6.728;2024-02-28T00:24:46;16.13;;;7.73;;
19084;SDS011;9675;51.538;6.728;2024-02-28T00:27:13;21.97;;;8.03;;
19084;SDS011;9675;51.538;6.728;2024-02-28T00:29:40;19.70;;;8.80;;
19084;SDS011;9675;51.538;6.728;2024-02-28T00:32:07;28.33;;;8.93;;
19084;SDS011;9675;51.538;6.728;2024-02-28T00:34:35;20.57;;;8.30;;
19084;SDS011;9675;51.538;6.728;2024-02-28T00:37:02;22.47;;;8.90;;
19084;SDS011;9675;51.538;6.728;2024-02-28T00:39:29;22.33;;;8.83;;
19084;SDS011;9675;51.538;6.728;2024-02-28T00:41:56;20.90;;;8.20;;
19084;SDS011;9675;51.538;6.728;2024-02-28T00:44:24;22.53;;;8.93;;
19084;SDS011;9675;51.538;6.728;2024-02-28T00:46:51;20.20;;;8.07;;
19084;SDS011;9675;51.538;6.728;2024-02-28T00:49:18;30.77;;;8.40;;
19084;SDS011;9675;51.538;6.728;2024-02-28T00:51:47;24.87;;;9.00;;
19084;SDS011;9675;51.538;6.728;2024-02-28T00:54:14;22.27;;;7.97;;
19084;SDS011;9675;51.538;6.728;2024-02-28T00:56:41;22.77;;;8.53;;
19084;SDS011;9675;51.538;6.728;2024-02-28T00:59:08;23.13;;;7.63;;
19084;SDS011;9675;51.538;6.728;2024-02-28T01:01:36;17.43;;;6.27;;
19084;SDS011;9675;51.538;6.728;2024-02-28T01:04:03;20.73;;;7.67;;
19084;SDS011;9675;51.538;6.728;2024-02-28T01:06:30;18.60;;;8.13;;
19084;SDS011;9675;51.538;6.728;2024-02-28T01:08:58;25.57;;;8.87;;
19084;SDS011;9675;51.538;6.728;2024-02-28T01:11:25;25.77;;;7.90;;
19084;SDS011;9675;51.538;6.728;2024-02-28T01:13:52;15.43;;;7.43;;
19084;SDS011;9675;51.538;6.728;2024-02-28T01:16:19;23.23;;;8.63;;
19084;SDS011;9675;51.538;6.728;2024-02-28T01:18:46;20.73;;;7.60;;
19084;SDS011;9675;51.538;6.728;2024-02-28T01:21:13;20.77;;;7.67;;
19084;SDS011;9675;51.538;6.728;2024-02-28T01:23:40;18.87;;;7.57;;
19084;SDS011;9675;51.538;6.728;2024-02-28T01:26:09;14.20;;;6.93;;
19084;SDS011;9675;51.538;6.728;2024-02-28T01:28:36;14.47;;;7.13;;
19084;SDS011;9675;51.538;6.728;2024-02-28T01:31:03;17.27;;;7.57;;
19084;SDS011;9675;51.538;6.728;2024-02-28T01:33:30;20.10;;;7.17;;
19084;SDS011;9675;51.538;6.728;2024-02-28T01:35:58;19.47;;;7.43;;
19084;SDS011;9675;51.538;6.728;2024-02-28T01:38:25;18.50;;;6.93;;
19084;SDS011;9675;51.538;6.728;2024-02-28T01:40:52;18.83;;;7.63;;
19084;SDS011;9675;51.538;6.728;2024-02-28T01:43:21;19.00;;;7.37;;
19084;SDS011;9675;51.538;6.728;2024-02-28T01:45:48;17.07;;;7.90;;
19084;SDS011;9675;51.538;6.728;2024-02-28T01:48:16;18.47;;;7.57;;
19084;SDS011;9675;51.538;6.728;2024-02-28T01:50:43;15.10;;;7.03;;
19084;SDS011;9675;51.538;6.728;2024-02-28T01:53:12;15.07;;;6.53;;
19084;SDS011;9675;51.538;6.728;2024-02-28T01:55:40;19.87;;;7.20;;
19084;SDS011;9675;51.538;6.728;2024-02-28T01:58:08;16.70;;;7.43;;
19084;SDS011;9675;51.538;6.728;2024-02-28T02:00:37;20.37;;;7.93;;
19084;SDS011;9675;51.538;6.728;2024-02-28T02:03:05;15.20;;;7.57;;
19084;SDS011;9675;51.538;6.728;2024-02-28T02:05:32;11.93;;;5.80;;
19084;SDS011;9675;51.538;6.728;2024-02-28T02:07:59;15.20;;;6.53;;
19084;SDS011;9675;51.538;6.728;2024-02-28T02:10:28;14.90;;;7.33;;
19084;SDS011;9675;51.538;6.728;2024-02-28T02:12:55;15.40;;;6.97;;
19084;SDS011;9675;51.538;6.728;2024-02-28T02:15:30;20.33;;;7.77;;
19084;SDS011;9675;51.538;6.728;2024-02-28T02:18:00;18.67;;;7.57;;
19084;SDS011;9675;51.538;6.728;2024-02-28T02:20:27;16.47;;;7.10;;
19084;SDS011;9675;51.538;6.728;2024-02-28T02:23:02;14.17;;;6.47;;
19084;SDS011;9675;51.538;6.728;2024-02-28T02:25:30;19.43;;;7.10;;
19084;SDS011;9675;51.538;6.728;2024-02-28T02:27:57;17.87;;;7.13;;
19084;SDS011;9675;51.538;6.728;2024-02-28T02:30:24;19.27;;;7.50;;
19084;SDS011;9675;51.538;6.728;2024-02-28T02:32:51;18.00;;;7.10;;
19084;SDS011;9675;51.538;6.728;2024-02-28T02:35:18;19.27;;;7.67;;
19084;SDS011;9675;51.538;6.728;2024-02-28T02:37:45;21.17;;;8.20;;
19084;SDS011;9675;51.538;6.728;2024-02-28T02:40:14;17.43;;;8.17;;
19084;SDS011;9675;51.538;6.728;2024-02-28T02:42:42;18.53;;;7.33;;
19084;SDS011;9675;51.538;6.728;2024-02-28T02:45:09;22.03;;;8.23;;
19084;SDS011;9675;51.538;6.728;2024-02-28T02:47:36;18.47;;;7.93;;
19084;SDS011;9675;51.538;6.728;2024-02-28T02:50:04;17.00;;;7.40;;
19084;SDS011;9675;51.538;6.728;2024-02-28T02:52:32;20.53;;;9.30;;
19084;SDS011;9675;51.538;6.728;2024-02-28T02:54:59;17.20;;;8.07;;
19084;SDS011;9675;51.538;6.728;2024-02-28T02:57:28;19.70;;;8.07;;
19084;SDS011;9675;51.538;6.728;2024-02-28T02:59:55;20.93;;;7.23;;
19084;SDS011;9675;51.538;6.728;2024-02-28T03:02:23;22.03;;;8.53;;
19084;SDS011;9675;51.538;6.728;2024-02-28T03:04:50;24.20;;;8.13;;
19084;SDS011;9675;51.538;6.728;2024-02-28T03:07:17;18.60;;;8.13;;
19084;SDS011;9675;51.538;6.728;2024-02-28T03:09:44;25.10;;;8.87;;
19084;SDS011;9675;51.538;6.728;2024-02-28T03:12:11;22.37;;;8.53;;
19084;SDS011;9675;51.538;6.728;2024-02-28T03:14:39;19.07;;;8.13;;
19084;SDS011;9675;51.538;6.728;2024-02-28T03:17:06;27.13;;;9.37;;
19084;SDS011;9675;51.538;6.728;2024-02-28T03:19:33;19.30;;;8.20;;
19084;SDS011;9675;51.538;6.728;2024-02-28T03:22:01;18.20;;;7.83;;
19084;SDS011;9675;51.538;6.728;2024-02-28T03:24:28;19.00;;;8.13;;
19084;SDS011;9675;51.538;6.728;2024-02-28T03:26:55;20.90;;;7.70;;
19084;SDS011;9675;51.538;6.728;2024-02-28T03:29:22;23.40;;;8.73;;
19084;SDS011;9675;51.538;6.728;2024-02-28T03:31:50;24.50;;;9.80;;
19084;SDS011;9675;51.538;6.728;2024-02-28T03:34:17;24.37;;;9.33;;
19084;SDS011;9675;51.538;6.728;2024-02-28T03:36:44;26.07;;;9.63;;
19084;SDS011;9675;51.538;6.728;2024-02-28T03:39:11;28.03;;;9.80;;
19084;SDS011;9675;51.538;6.728;2024-02-28T03:41:38;28.90;;;10.93;;
19084;SDS011;9675;51.538;6.728;2024-02-28T03:44:05;28.77;;;10.70;;
19084;SDS011;9675;51.538;6.728;2024-02-28T03:46:33;25.83;;;9.30;;
19084;SDS011;9675;51.538;6.728;2024-02-28T03:49:01;27.23;;;9.67;;
19084;SDS011;9675;51.538;6.728;2024-02-28T03:51:28;25.43;;;10.40;;
19084;SDS011;9675;51.538;6.728;2024-02-28T03:53:55;22.80;;;10.27;;
19084;SDS011;9675;51.538;6.728;2024-02-28T03:56:22;29.87;;;10.60;;
19084;SDS011;9675;51.538;6.728;2024-02-28T03:58:50;27.70;;;11.17;;
19084;SDS011;9675;51.538;6.728;2024-02-28T04:01:18;35.27;;;12.00;;
19084;SDS011;9675;51.538;6.728;2024-02-28T04:03:45;32.70;;;12.03;;
19084;SDS011;9675;51.538;6.728;2024-02-28T04:06:13;29.70;;;12.07;;
19084;SDS011;9675;51.538;6.728;2024-02-28T04:08:41;23.70;;;10.63;;
19084;SDS011;9675;51.538;6.728;2024-02-28T04:11:08;29.63;;;12.70;;
19084;SDS011;9675;51.538;6.728;2024-02-28T04:13:35;37.97;;;15.67;;
19084;SDS011;9675;51.538;6.728;2024-02-28T04:16:03;27.93;;;12.53;;
19084;SDS011;9675;51.538;6.728;2024-02-28T04:18:30;29.20;;;12.80;;
19084;SDS011;9675;51.538;6.728;2024-02-28T04:20:58;30.10;;;12.07;;
19084;SDS011;9675;51.538;6.728;2024-02-28T04:23:26;24.43;;;10.37;;
19084;SDS011;9675;51.538;6.728;2024-02-28T04:25:53;41.13;;;16.63;;
19084;SDS011;9675;51.538;6.728;2024-02-28T04:28:20;32.10;;;13.80;;
19084;SDS011;9675;51.538;6.728;2024-02-28T04:30:47;27.43;;;12.80;;
19084;SDS011;9675;51.538;6.728;2024-02-28T04:33:15;33.67;;;13.60;;
19084;SDS011;9675;51.538;6.728;2024-02-28T04:35:42;35.67;;;14.83;;
19084;SDS011;9675;51.538;6.728;2024-02-28T04:38:09;26.77;;;12.63;;
19084;SDS011;9675;51.538;6.728;2024-02-28T04:40:37;26.37;;;11.03;;
19084;SDS011;9675;51.538;6.728;2024-02-28T04:43:05;27.03;;;12.93;;
19084;SDS011;9675;51.538;6.728;2024-02-28T04:45:32;32.20;;;12.30;;
19084;SDS011;9675;51.538;6.728;2024-02-28T04:47:59;30.73;;;13.43;;
19084;SDS011;9675;51.538;6.728;2024-02-28T04:50:26;29.43;;;11.00;;
19084;SDS011;9675;51.538;6.728;2024-02-28T04:52:53;26.27;;;11.53;;
19084;SDS011;9675;51.538;6.728;2024-02-28T04:55:20;31.57;;;12.67;;
19084;SDS011;9675;51.538;6.728;2024-02-28T04:57:49;23.00;;;11.10;;
19084;SDS011;9675;51.538;6.728;2024-02-28T05:00:16;23.20;;;11.00;;
19084;SDS011;9675;51.538;6.728;2024-02-28T05:02:43;26.70;;;10.30;;
19084;SDS011;9675;51.538;6.728;2024-02-28T05:05:10;34.00;;;14.53;;
19084;SDS011;9675;51.538;6.728;2024-02-28T05:07:37;26.03;;;11.03;;
19084;SDS011;9675;51.538;6.728;2024-02-28T05:10:05;29.10;;;12.03;;
19084;SDS011;9675;51.538;6.728;2024-02-28T05:12:33;21.37;;;10.67;;
19084;SDS011;9675;51.538;6.728;2024-02-28T05:15:02;22.33;;;11.03;;
19084;SDS011;9675;51.538;6.728;2024-02-28T05:17:31;20.60;;;8.97;;
19084;SDS011;9675;51.538;6.728;2024-02-28T05:19:58;22.73;;;11.37;;
19084;SDS011;9675;51.538;6.728;2024-02-28T05:22:25;28.23;;;11.90;;
19084;SDS011;9675;51.538;6.728;2024-02-28T05:24:52;25.87;;;10.97;;
19084;SDS011;9675;51.538;6.728;2024-02-28T05:27:19;24.83;;;11.27;;
19084;SDS011;9675;51.538;6.728;2024-02-28T05:29:47;25.13;;;10.50;;
19084;SDS011;9675;51.538;6.728;2024-02-28T05:32:15;29.93;;;13.47;;
19084;SDS011;9675;51.538;6.728;2024-02-28T05:34:43;24.80;;;10.87;;
19084;SDS011;9675;51.538;6.728;2024-02-28T05:37:12;25.33;;;10.60;;
19084;SDS011;9675;51.538;6.728;2024-02-28T05:39:39;23.13;;;8.87;;
19084;SDS011;9675;51.538;6.728;2024-02-28T05:42:06;26.23;;;10.57;;
19084;SDS011;9675;51.538;6.728;2024-02-28T05:44:34;30.03;;;11.77;;
19084;SDS011;9675;51.538;6.728;2024-02-28T05:47:01;25.90;;;12.43;;
19084;SDS011;9675;51.538;6.728;2024-02-28T05:49:29;24.73;;;10.97;;
19084;SDS011;9675;51.538;6.728;2024-02-28T05:51:56;26.17;;;11.47;;
19084;SDS011;9675;51.538;6.728;2024-02-28T05:54:23;25.03;;;10.53;;
19084;SDS011;9675;51.538;6.728;2024-02-28T05:56:50;26.27;;;11.93;;
19084;SDS011;9675;51.538;6.728;2024-02-28T05:59:17;30.37;;;14.37;;
19084;SDS011;9675;51.538;6.728;2024-02-28T06:01:44;32.10;;;12.27;;
19084;SDS011;9675;51.538;6.728;2024-02-28T06:04:12;28.97;;;12.20;;
19084;SDS011;9675;51.538;6.728;2024-02-28T06:06:40;24.47;;;10.80;;
19084;SDS011;9675;51.538;6.728;2024-02-28T06:09:07;33.33;;;13.83;;
19084;SDS011;9675;51.538;6.728;2024-02-28T06:11:35;30.87;;;11.87;;
19084;SDS011;9675;51.538;6.728;2024-02-28T06:14:02;28.60;;;12.13;;
19084;SDS011;9675;51.538;6.728;2024-02-28T06:16:30;26.30;;;11.20;;
19084;SDS011;9675;51.538;6.728;2024-02-28T06:18:57;25.80;;;12.63;;
19084;SDS011;9675;51.538;6.728;2024-02-28T06:21:24;23.40;;;10.00;;
19084;SDS011;9675;51.538;6.728;2024-02-28T06:23:52;32.10;;;14.27;;
19084;SDS011;9675;51.538;6.728;2024-02-28T06:26:19;32.53;;;13.50;;
19084;SDS011;9675;51.538;6.728;2024-02-28T06:28:46;31.47;;;13.13;;
19084;SDS011;9675;51.538;6.728;2024-02-28T06:31:15;29.87;;;13.33;;
19084;SDS011;9675;51.538;6.728;2024-02-28T06:33:42;30.43;;;12.93;;
19084;SDS011;9675;51.538;6.728;2024-02-28T06:36:09;33.20;;;13.73;;
19084;SDS011;9675;51.538;6.728;2024-02-28T06:38:37;32.57;;;12.50;;
19084;SDS011;9675;51.538;6.728;2024-02-28T06:41:05;30.50;;;12.00;;
19084;SDS011;9675;51.538;6.728;2024-02-28T06:43:32;35.63;;;14.37;;
19084;SDS011;9675;51.538;6.728;2024-02-28T06:46:00;37.93;;;15.37;;
19084;SDS011;9675;51.538;6.728;2024-02-28T06:48:28;37.93;;;14.63;;
19084;SDS011;9675;51.538;6.728;2024-02-28T06:50:55;46.43;;;18.23;;
19084;SDS011;9675;51.538;6.728;2024-02-28T06:53:22;33.60;;;15.07;;
19084;SDS011;9675;51.538;6.728;2024-02-28T06:55:50;37.37;;;14.67;;
19084;SDS011;9675;51.538;6.728;2024-02-28T06:58:18;46.83;;;16.60;;
19084;SDS011;9675;51.538;6.728;2024-02-28T07:00:45;36.57;;;14.33;;
19084;SDS011;9675;51.538;6.728;2024-02-28T07:03:14;40.50;;;15.00;;
19084;SDS011;9675;51.538;6.728;2024-02-28T07:05:41;42.10;;;15.13;;
19084;SDS011;9675;51.538;6.728;2024-02-28T07:08:08;44.23;;;16.73;;
19084;SDS011;9675;51.538;6.728;2024-02-28T07:10:36;58.80;;;17.53;;
19084;SDS011;9675;51.538;6.728;2024-02-28T07:13:08;47.83;;;17.00;;
19084;SDS011;9675;51.538;6.728;2024-02-28T07:15:37;53.27;;;16.17;;
19084;SDS011;9675;51.538;6.728;2024-02-28T07:18:05;49.93;;;19.70;;
19084;SDS011;9675;51.538;6.728;2024-02-28T07:20:32;46.53;;;17.47;;
19084;SDS011;9675;51.538;6.728;2024-02-28T07:22:59;69.63;;;22.67;;
19084;SDS011;9675;51.538;6.728;2024-02-28T07:25:27;59.70;;;19.60;;
19084;SDS011;9675;51.538;6.728;2024-02-28T07:27:56;66.03;;;20.73;;
19084;SDS011;9675;51.538;6.728;2024-02-28T07:30:24;56.60;;;18.50;;
19084;SDS011;9675;51.538;6.728;2024-02-28T07:32:52;59.97;;;20.10;;
19084;SDS011;9675;51.538;6.728;2024-02-28T07:35:20;65.53;;;18.40;;
19084;SDS011;9675;51.538;6.728;2024-02-28T07:37:49;45.40;;;16.43;;
19084;SDS011;9675;51.538;6.728;2024-02-28T07:40:16;60.43;;;18.03;;
19084;SDS011;9675;51.538;6.728;2024-02-28T07:42:44;76.83;;;22.67;;
19084;SDS011;9675;51.538;6.728;2024-02-28T07:45:11;69.13;;;18.97;;
19084;SDS011;9675;51.538;6.728;2024-02-28T07:47:38;53.80;;;18.03;;
19084;SDS011;9675;51.538;6.728;2024-02-28T07:50:07;70.00;;;22.47;;
19084;SDS011;9675;51.538;6.728;2024-02-28T07:52:35;44.13;;;13.37;;
19084;SDS011;9675;51.538;6.728;2024-02-28T07:55:02;53.00;;;16.43;;
19084;SDS011;9675;51.538;6.728;2024-02-28T07:57:31;64.40;;;19.33;;
19084;SDS011;9675;51.538;6.728;2024-02-28T07:59:59;70.00;;;20.83;;
19084;SDS011;9675;51.538;6.728;2024-02-28T08:02:26;57.47;;;18.03;;
19084;SDS011;9675;51.538;6.728;2024-02-28T08:04:53;64.80;;;18.43;;
19084;SDS011;9675;51.538;6.728;2024-02-28T08:07:21;50.23;;;16.90;;
19084;SDS011;9675;51.538;6.728;2024-02-28T08:09:48;47.93;;;14.83;;
19084;SDS011;9675;51.538;6.728;2024-02-28T08:12:15;46.27;;;15.53;;
19084;SDS011;9675;51.538;6.728;2024-02-28T08:14:43;46.37;;;16.50;;
19084;SDS011;9675;51.538;6.728;2024-02-28T08:17:11;57.03;;;18.47;;
19084;SDS011;9675;51.538;6.728;2024-02-28T08:19:40;59.03;;;19.07;;
19084;SDS011;9675;51.538;6.728;2024-02-28T08:22:08;88.07;;;25.23;;
19084;SDS011;9675;51.538;6.728;2024-02-28T08:24:37;81.07;;;24.33;;
19084;SDS011;9675;51.538;6.728;2024-02-28T08:27:04;61.20;;;17.27;;
19084;SDS011;9675;51.538;6.728;2024-02-28T08:29:31;67.83;;;21.50;;
19084;SDS011;9675;51.538;6.728;2024-02-28T08:32:00;78.67;;;21.80;;
19084;SDS011;9675;51.538;6.728;2024-02-28T08:34:28;71.50;;;20.33;;
19084;SDS011;9675;51.538;6.728;2024-02-28T08:36:55;67.73;;;19.47;;
19084;SDS011;9675;51.538;6.728;2024-02-28T08:39:22;79.33;;;21.80;;
19084;SDS011;9675;51.538;6.728;2024-02-28T08:41:50;61.90;;;18.33;;
19084;SDS011;9675;51.538;6.728;2024-02-28T08:44:17;58.67;;;16.40;;
19084;SDS011;9675;51.538;6.728;2024-02-28T08:46:46;83.27;;;20.27;;
19084;SDS011;9675;51.538;6.728;2024-02-28T08:49:13;58.63;;;17.33;;
19084;SDS011;9675;51.538;6.728;2024-02-28T08:51:42;68.83;;;22.07;;
19084;SDS011;9675;51.538;6.728;2024-02-28T08:54:09;68.73;;;18.17;;
19084;SDS011;9675;51.538;6.728;2024-02-28T08:56:36;53.80;;;14.80;;
19084;SDS011;9675;51.538;6.728;2024-02-28T08:59:04;61.47;;;19.13;;
19084;SDS011;9675;51.538;6.728;2024-02-28T09:01:31;63.03;;;18.60;;
19084;SDS011;9675;51.538;6.728;2024-02-28T09:03:59;60.00;;;17.47;;
19084;SDS011;9675;51.538;6.728;2024-02-28T09:06:26;80.47;;;22.67;;
19084;SDS011;9675;51.538;6.728;2024-02-28T09:08:53;68.90;;;20.47;;
19084;SDS011;9675;51.538;6.728;2024-02-28T09:11:20;73.20;;;19.40;;
19084;SDS011;9675;51.538;6.728;2024-02-28T09:13:47;74.20;;;21.80;;
19084;SDS011;9675;51.538;6.728;2024-02-28T09:16:15;86.50;;;23.50;;
19084;SDS011;9675;51.538;6.728;2024-02-28T09:18:43;44.47;;;14.90;;
19084;SDS011;9675;51.538;6.728;2024-02-28T09:21:10;74.60;;;23.03;;
19084;SDS011;9675;51.538;6.728;2024-02-28T09:23:37;73.43;;;18.87;;
19084;SDS011;9675;51.538;6.728;2024-02-28T09:26:04;78.60;;;24.20;;
19084;SDS011;9675;51.538;6.728;2024-02-28T09:28:32;82.50;;;22.80;;
19084;SDS011;9675;51.538;6.728;2024-02-28T09:30:59;87.17;;;23.87;;
19084;SDS011;9675;51.538;6.728;2024-02-28T09:33:27;71.70;;;21.67;;
19084;SDS011;9675;51.538;6.728;2024-02-28T09:35:54;78.50;;;24.13;;
19084;SDS011;9675;51.538;6.728;2024-02-28T09:38:21;68.90;;;19.13;;
19084;SDS011;9675;51.538;6.728;2024-02-28T09:40:49;84.57;;;22.43;;
19084;SDS011;9675;51.538;6.728;2024-02-28T09:43:19;82.27;;;22.93;;
19084;SDS011;9675;51.538;6.728;2024-02-28T09:45:56;77.83;;;21.73;;
19084;SDS011;9675;51.538;6.728;2024-02-28T09:48:31;80.03;;;21.40;;
19084;SDS011;9675;51.538;6.728;2024-02-28T09:51:02;60.73;;;18.40;;
19084;SDS011;9675;51.538;6.728;2024-02-28T09:53:30;75.10;;;21.77;;
19084;SDS011;9675;51.538;6.728;2024-02-28T09:55:57;56.10;;;17.53;;
19084;SDS011;9675;51.538;6.728;2024-02-28T09:58:25;63.97;;;18.50;;
19084;SDS011;9675;51.538;6.728;2024-02-28T10:00:54;72.77;;;21.23;;
19084;SDS011;9675;51.538;6.728;2024-02-28T10:03:28;75.80;;;18.37;;
19084;SDS011;9675;51.538;6.728;2024-02-28T10:05:58;85.63;;;22.13;;
19084;SDS011;9675;51.538;6.728;2024-02-28T10:08:25;67.20;;;20.00;;
19084;SDS011;9675;51.538;6.728;2024-02-28T10:10:54;94.13;;;25.07;;
19084;SDS011;9675;51.538;6.728;2024-02-28T10:13:22;76.13;;;23.07;;
19084;SDS011;9675;51.538;6.728;2024-02-28T10:15:49;70.70;;;20.33;;
19084;SDS011;9675;51.538;6.728;2024-02-28T10:18:16;75.27;;;23.03;;
19084;SDS011;9675;51.538;6.728;2024-02-28T10:20:45;76.87;;;20.40;;
19084;SDS011;9675;51.538;6.728;2024-02-28T10:23:13;79.60;;;20.00;;
19084;SDS011;9675;51.538;6.728;2024-02-28T10:25:42;71.77;;;21.10;;
19084;SDS011;9675;51.538;6.728;2024-02-28T10:28:10;85.63;;;21.23;;
19084;SDS011;9675;51.538;6.728;2024-02-28T10:30:39;64.43;;;20.30;;
19084;SDS011;9675;51.538;6.728;2024-02-28T10:33:10;76.93;;;20.17;;
19084;SDS011;9675;51.538;6.728;2024-02-28T10:35:39;67.77;;;16.70;;
19084;SDS011;9675;51.538;6.728;2024-02-28T10:38:08;76.00;;;20.63;;
19084;SDS011;9675;51.538;6.728;2024-02-28T10:40:37;76.37;;;22.13;;
19084;SDS011;9675;51.538;6.728;2024-02-28T10:43:06;92.57;;;23.90;;
19084;SDS011;9675;51.538;6.728;2024-02-28T10:45:35;56.10;;;15.53;;
19084;SDS011;9675;51.538;6.728;2024-02-28T10:48:03;66.53;;;18.90;;
19084;SDS011;9675;51.538;6.728;2024-02-28T10:50:32;85.43;;;28.27;;
19084;SDS011;9675;51.538;6.728;2024-02-28T10:53:00;98.10;;;28.83;;
19084;SDS011;9675;51.538;6.728;2024-02-28T10:55:32;67.00;;;19.83;;
19084;SDS011;9675;51.538;6.728;2024-02-28T10:58:01;76.53;;;20.23;;
19084;SDS011;9675;51.538;6.728;2024-02-28T11:00:34;68.47;;;19.10;;
19084;SDS011;9675;51.538;6.728;2024-02-28T11:03:03;60.30;;;16.67;;
19084;SDS011;9675;51.538;6.728;2024-02-28T11:05:35;63.20;;;16.33;;
19084;SDS011;9675;51.538;6.728;2024-02-28T11:08:04;71.57;;;19.73;;
19084;SDS011;9675;51.538;6.728;2024-02-28T11:10:35;86.67;;;21.00;;
19084;SDS011;9675;51.538;6.728;2024-02-28T11:13:07;80.77;;;22.70;;
19084;SDS011;9675;51.538;6.728;2024-02-28T11:15:36;84.67;;;24.57;;
19084;SDS011;9675;51.538;6.728;2024-02-28T11:18:09;65.03;;;20.17;;
19084;SDS011;9675;51.538;6.728;2024-02-28T11:20:38;81.13;;;24.17;;
19084;SDS011;9675;51.538;6.728;2024-02-28T11:23:05;69.43;;;19.70;;
19084;SDS011;9675;51.538;6.728;2024-02-28T11:25:33;70.83;;;20.13;;
19084;SDS011;9675;51.538;6.728;2024-02-28T11:28:02;52.13;;;18.23;;
19084;SDS011;9675;51.538;6.728;2024-02-28T11:30:31;56.77;;;15.70;;
19084;SDS011;9675;51.538;6.728;2024-02-28T11:32:59;70.20;;;20.27;;
19084;SDS011;9675;51.538;6.728;2024-02-28T11:35:26;61.50;;;20.00;;
19084;SDS011;9675;51.538;6.728;2024-02-28T11:37:54;60.10;;;19.97;;
19084;SDS011;9675;51.538;6.728;2024-02-28T11:40:22;54.17;;;17.70;;
19084;SDS011;9675;51.538;6.728;2024-02-28T11:42:52;60.60;;;21.03;;
19084;SDS011;9675;51.538;6.728;2024-02-28T11:45:21;49.40;;;16.50;;
19084;SDS011;9675;51.538;6.728;2024-02-28T11:47:49;46.07;;;17.37;;
19084;SDS011;9675;51.538;6.728;2024-02-28T11:50:17;49.67;;;17.60;;
19084;SDS011;9675;51.538;6.728;2024-02-28T11:52:44;52.90;;;18.67;;
19084;SDS011;9675;51.538;6.728;2024-02-28T11:55:12;59.73;;;21.03;;
19084;SDS011;9675;51.538;6.728;2024-02-28T11:57:39;42.77;;;14.77;;
19084;SDS011;9675;51.538;6.728;2024-02-28T12:00:08;55.20;;;17.67;;
19084;SDS011;9675;51.538;6.728;2024-02-28T12:02:37;56.00;;;18.00;;
19084;SDS011;9675;51.538;6.728;2024-02-28T12:05:05;70.77;;;22.17;;
19084;SDS011;9675;51.538;6.728;2024-02-28T12:07:34;54.57;;;18.90;;
19084;SDS011;9675;51.538;6.728;2024-02-28T12:10:03;58.70;;;20.77;;
19084;SDS011;9675;51.538;6.728;2024-02-28T12:12:33;53.53;;;17.83;;
19084;SDS011;9675;51.538;6.728;2024-02-28T12:15:00;50.70;;;15.93;;
19084;SDS011;9675;51.538;6.728;2024-02-28T12:17:31;49.63;;;18.03;;
19084;SDS011;9675;51.538;6.728;2024-02-28T12:19:58;54.93;;;19.13;;
19084;SDS011;9675;51.538;6.728;2024-02-28T12:22:26;50.97;;;18.20;;
19084;SDS011;9675;51.538;6.728;2024-02-28T12:24:53;47.90;;;15.73;;
19084;SDS011;9675;51.538;6.728;2024-02-28T12:27:20;33.30;;;12.40;;
19084;SDS011;9675;51.538;6.728;2024-02-28T12:29:47;31.07;;;11.47;;
19084;SDS011;9675;51.538;6.728;2024-02-28T12:32:14;35.10;;;14.43;;
19084;SDS011;9675;51.538;6.728;2024-02-28T12:34:44;39.13;;;12.23;;
19084;SDS011;9675;51.538;6.728;2024-02-28T12:37:11;31.00;;;10.97;;
19084;SDS011;9675;51.538;6.728;2024-02-28T12:39:38;42.60;;;15.00;;
19084;SDS011;9675;51.538;6.728;2024-02-28T12:42:05;33.40;;;12.33;;
19084;SDS011;9675;51.538;6.728;2024-02-28T12:44:34;47.20;;;15.73;;
19084;SDS011;9675;51.538;6.728;2024-02-28T12:47:01;36.73;;;14.57;;
19084;SDS011;9675;51.538;6.728;2024-02-28T12:49:28;37.60;;;12.60;;
19084;SDS011;9675;51.538;6.728;2024-02-28T12:51:56;40.53;;;15.43;;
19084;SDS011;9675;51.538;6.728;2024-02-28T12:54:23;37.93;;;14.57;;
19084;SDS011;9675;51.538;6.728;2024-02-28T12:56:51;35.40;;;12.13;;
19084;SDS011;9675;51.538;6.728;2024-02-28T12:59:18;40.53;;;15.13;;
19084;SDS011;9675;51.538;6.728;2024-02-28T13:01:45;39.83;;;14.50;;
19084;SDS011;9675;51.538;6.728;2024-02-28T13:04:13;37.00;;;15.13;;
19084;SDS011;9675;51.538;6.728;2024-02-28T13:06:40;38.50;;;15.27;;
19084;SDS011;9675;51.538;6.728;2024-02-28T13:09:09;34.30;;;13.47;;
19084;SDS011;9675;51.538;6.728;2024-02-28T13:11:38;26.63;;;10.57;;
19084;SDS011;9675;51.538;6.728;2024-02-28T13:14:05;31.77;;;12.07;;
19084;SDS011;9675;51.538;6.728;2024-02-28T13:16:34;33.67;;;11.40;;
19084;SDS011;9675;51.538;6.728;2024-02-28T13:19:01;31.80;;;12.70;;
19084;SDS011;9675;51.538;6.728;2024-02-28T13:21:29;22.60;;;10.53;;
19084;SDS011;9675;51.538;6.728;2024-02-28T13:23:57;40.73;;;15.07;;
19084;SDS011;9675;51.538;6.728;2024-02-28T13:26:26;30.17;;;11.60;;
19084;SDS011;9675;51.538;6.728;2024-02-28T13:28:53;33.50;;;11.43;;
19084;SDS011;9675;51.538;6.728;2024-02-28T13:31:20;29.43;;;11.70;;
19084;SDS011;9675;51.538;6.728;2024-02-28T13:33:47;27.67;;;10.17;;
19084;SDS011;9675;51.538;6.728;2024-02-28T13:36:14;29.33;;;11.13;;
19084;SDS011;9675;51.538;6.728;2024-02-28T13:38:41;26.70;;;10.47;;
19084;SDS011;9675;51.538;6.728;2024-02-28T13:41:09;31.60;;;11.47;;
19084;SDS011;9675;51.538;6.728;2024-02-28T13:43:37;32.53;;;11.83;;
19084;SDS011;9675;51.538;6.728;2024-02-28T13:46:04;34.63;;;13.73;;
19084;SDS011;9675;51.538;6.728;2024-02-28T13:48:32;32.70;;;12.67;;
19084;SDS011;9675;51.538;6.728;2024-02-28T13:50:59;44.57;;;15.57;;
19084;SDS011;9675;51.538;6.728;2024-02-28T13:53:27;31.37;;;12.10;;
19084;SDS011;9675;51.538;6.728;2024-02-28T13:55:54;26.33;;;11.13;;
19084;SDS011;9675;51.538;6.728;2024-02-28T13:58:21;27.83;;;12.17;;
19084;SDS011;9675;51.538;6.728;2024-02-28T14:00:49;26.43;;;11.27;;
19084;SDS011;9675;51.538;6.728;2024-02-28T14:03:17;30.40;;;10.43;;
19084;SDS011;9675;51.538;6.728;2024-02-28T14:05:45;13.17;;;6.50;;
19084;SDS011;9675;51.538;6.728;2024-02-28T14:08:12;30.00;;;10.93;;
19084;SDS011;9675;51.538;6.728;2024-02-28T14:10:39;29.07;;;11.63;;
19084;SDS011;9675;51.538;6.728;2024-02-28T14:13:07;28.20;;;11.57;;
19084;SDS011;9675;51.538;6.728;2024-02-28T14:15:34;26.57;;;11.33;;
19084;SDS011;9675;51.538;6.728;2024-02-28T14:18:03;25.73;;;10.20;;
19084;SDS011;9675;51.538;6.728;2024-02-28T14:20:31;25.30;;;9.43;;
19084;SDS011;9675;51.538;6.728;2024-02-28T14:22:58;24.40;;;9.23;;
19084;SDS011;9675;51.538;6.728;2024-02-28T14:25:25;29.87;;;10.43;;
19084;SDS011;9675;51.538;6.728;2024-02-28T14:27:53;24.03;;;9.67;;
19084;SDS011;9675;51.538;6.728;2024-02-28T14:30:20;23.37;;;9.93;;
19084;SDS011;9675;51.538;6.728;2024-02-28T14:32:49;27.77;;;10.63;;
19084;SDS011;9675;51.538;6.728;2024-02-28T14:35:17;30.73;;;11.47;;
19084;SDS011;9675;51.538;6.728;2024-02-28T14:37:44;25.57;;;10.60;;
19084;SDS011;9675;51.538;6.728;2024-02-28T14:40:12;28.37;;;10.33;;